Time;durP1;ratioP1;P1;durP2;ratioP2;P2;SDS_P1;SDS_P2;PMS_P1;PMS_P2;Temp;Humidity;BMP_temperature;BMP_pressure;BME280_temperature;BME280_humidity;BME280_pressure;Samples;Min_cycle;Max_cycle;Signal;HPM_P1;HPM_P2
2022/06/30 00:00:51;;;;;;;10.40;8.90;;;;;;;19.02;89.31;99530.86;104575;1280;138779;-59
2022/06/30 00:03:18;;;;;;;9.00;7.50;;;;;;;19.00;89.32;99541.79;104756;1278;26173;-59
2022/06/30 00:05:45;;;;;;;9.60;8.20;;;;;;;18.99;89.44;99540.50;104732;1277;24427;-59
2022/06/30 00:08:12;;;;;;;9.60;8.40;;;;;;;18.97;89.29;99535.84;104526;1277;138930;-59
2022/06/30 00:10:39;;;;;;;12.20;9.30;;;;;;;18.95;89.28;99538.16;104599;1279;25330;-59
2022/06/30 00:13:06;;;;;;;11.00;9.00;;;;;;;18.93;89.32;99533.44;104591;1280;138082;-60
2022/06/30 00:15:35;;;;;;;11.90;9.40;;;;;;;18.93;89.34;99539.95;104792;1279;22770;-59
2022/06/30 00:18:02;;;;;;;11.80;8.60;;;;;;;18.92;89.40;99544.95;108999;1278;22492;-60
2022/06/30 00:20:29;;;;;;;14.80;9.00;;;;;;;18.90;88.96;99551.22;108928;1277;138021;-60
2022/06/30 00:22:56;;;;;;;9.50;8.30;;;;;;;18.86;89.04;99551.58;108996;1277;22526;-59
2022/06/30 00:25:23;;;;;;;10.10;8.80;;;;;;;18.83;89.25;99546.90;108911;1278;138047;-59
2022/06/30 00:27:50;;;;;;;9.50;8.60;;;;;;;18.83;89.48;99542.98;108958;1278;22417;-60
2022/06/30 00:30:17;;;;;;;9.80;8.20;;;;;;;18.84;89.70;99543.50;109065;1277;22520;-60
2022/06/30 00:32:43;;;;;;;9.50;8.00;;;;;;;18.85;89.66;99549.23;108875;1277;137948;-59
2022/06/30 00:35:10;;;;;;;9.60;8.70;;;;;;;18.86;89.71;99550.76;109020;1277;22592;-60
2022/06/30 00:37:37;;;;;;;12.00;9.00;;;;;;;18.87;89.81;99548.14;108890;1277;138382;-59
2022/06/30 00:40:04;;;;;;;9.90;8.80;;;;;;;18.86;89.78;99555.77;108986;1277;24892;-60
2022/06/30 00:42:31;;;;;;;11.90;8.70;;;;;;;18.86;89.89;99565.90;109048;1277;22566;-59
2022/06/30 00:44:58;;;;;;;10.00;8.50;;;;;;;18.85;89.88;99571.61;109035;1277;137787;-59
2022/06/30 00:47:26;;;;;;;10.90;9.30;;;;;;;18.86;90.26;99575.55;105144;1278;24242;-59
2022/06/30 00:49:53;;;;;;;10.50;9.20;;;;;;;18.87;90.30;99580.66;108943;1278;137802;-59
2022/06/30 00:52:19;;;;;;;10.80;9.20;;;;;;;18.87;90.85;99583.97;108946;1279;23615;-59
2022/06/30 00:54:46;;;;;;;9.90;8.80;;;;;;;18.87;91.26;99575.91;108947;1277;138242;-60
2022/06/30 00:57:13;;;;;;;10.50;8.40;;;;;;;18.87;91.47;99573.15;108868;1280;22474;-59
2022/06/30 00:59:40;;;;;;;11.10;9.50;;;;;;;18.87;91.59;99573.71;108741;1279;22527;-59
2022/06/30 01:02:07;;;;;;;10.50;9.40;;;;;;;18.86;91.70;99566.39;108845;1279;139994;-59
2022/06/30 01:04:34;;;;;;;9.80;8.80;;;;;;;18.85;91.68;99558.17;109007;1277;22441;-60
2022/06/30 01:07:01;;;;;;;11.90;9.10;;;;;;;18.85;91.69;99557.35;108874;1278;138090;-60
2022/06/30 01:14:59;;;;;;;11.50;9.80;;;;;;;18.83;91.57;99556.61;109008;1278;22627;-60
2022/06/30 01:17:26;;;;;;;11.60;10.40;;;;;;;18.81;91.60;99561.63;109038;1277;22609;-59
2022/06/30 01:19:56;;;;;;;10.50;9.40;;;;;;;18.80;91.51;99563.54;108902;1279;138494;-60
2022/06/30 01:22:23;;;;;;;12.10;10.00;;;;;;;18.79;91.52;99563.39;109110;1277;22452;-59
2022/06/30 01:24:50;;;;;;;11.30;10.00;;;;;;;18.78;91.50;99555.12;108901;1280;139726;-59
2022/06/30 01:27:16;;;;;;;10.80;9.30;;;;;;;18.78;91.53;99550.33;109075;1277;22434;-60
2022/06/30 01:29:43;;;;;;;10.70;9.60;;;;;;;18.79;91.52;99553.48;108974;1279;22416;-60
2022/06/30 01:32:10;;;;;;;13.40;9.50;;;;;;;18.80;91.47;99550.98;109008;1277;138886;-59
2022/06/30 01:34:37;;;;;;;11.30;9.60;;;;;;;18.81;91.38;99552.30;109018;1279;22404;-60
2022/06/30 01:37:04;;;;;;;11.50;9.90;;;;;;;18.79;91.16;99554.05;108891;1278;139421;-59
2022/06/30 01:39:31;;;;;;;11.20;10.00;;;;;;;18.78;91.12;99555.74;108972;1278;22645;-60
2022/06/30 01:41:58;;;;;;;11.50;10.40;;;;;;;18.77;91.21;99548.80;108995;1279;22850;-60
2022/06/30 01:44:25;;;;;;;12.70;11.00;;;;;;;18.75;91.27;99545.98;108940;1278;139791;-60
2022/06/30 01:46:51;;;;;;;14.90;11.10;;;;;;;18.71;91.24;99549.50;109060;1279;22549;-60
2022/06/30 01:49:18;;;;;;;12.60;11.20;;;;;;;18.67;91.39;99553.27;109116;1277;138352;-60
2022/06/30 01:51:45;;;;;;;12.00;10.90;;;;;;;18.65;91.58;99554.41;109017;1277;22455;-59
2022/06/30 01:54:12;;;;;;;13.80;12.10;;;;;;;18.64;91.79;99551.23;109056;1277;22625;-60
2022/06/30 01:56:39;;;;;;;14.30;12.70;;;;;;;18.64;92.03;99554.88;108908;1277;138300;-60
2022/06/30 01:59:06;;;;;;;17.00;13.30;;;;;;;18.63;92.10;99550.21;108883;1280;22550;-59
2022/06/30 02:01:33;;;;;;;14.40;11.80;;;;;;;18.61;92.10;99545.09;108988;1277;139031;-60
2022/06/30 02:04:46;;;;;;;13.50;12.00;;;;;;;18.57;92.16;99545.26;109085;1279;22478;-59
2022/06/30 02:06:48;;;;;;;13.70;12.30;;;;;;;18.53;92.27;99546.27;108918;1280;139815;-60
2022/06/30 02:09:15;;;;;;;16.80;12.10;;;;;;;18.50;92.20;99548.70;107157;1277;22592;-59
2022/06/30 02:11:41;;;;;;;13.90;12.20;;;;;;;18.47;92.19;99546.47;104750;1277;25262;-60
2022/06/30 02:14:08;;;;;;;14.20;12.80;;;;;;;18.42;92.04;99545.10;104664;1278;138618;-59
2022/06/30 02:16:35;;;;;;;14.00;12.50;;;;;;;18.35;92.10;99538.33;104700;1279;22577;-60
2022/06/30 02:19:03;;;;;;;13.30;11.90;;;;;;;18.29;92.22;99543.38;104576;1278;138603;-59
2022/06/30 02:21:30;;;;;;;15.50;12.70;;;;;;;18.26;92.39;99550.89;104628;1278;24137;-60
2022/06/30 02:23:57;;;;;;;13.80;12.10;;;;;;;18.23;92.61;99552.15;104690;1278;22720;-59
2022/06/30 02:26:23;;;;;;;17.00;13.30;;;;;;;18.22;92.79;99555.61;104780;1278;140683;-59
2022/06/30 02:28:50;;;;;;;15.60;12.10;;;;;;;18.21;92.85;99558.27;104907;1278;24340;-59
2022/06/30 02:31:17;;;;;;;13.20;11.40;;;;;;;18.20;92.93;99558.18;104586;1279;138951;-59
2022/06/30 02:33:44;;;;;;;12.30;11.10;;;;;;;18.18;93.14;99561.63;104788;1279;25335;-59
2022/06/30 02:36:11;;;;;;;16.50;10.80;;;;;;;18.19;93.27;99564.20;104758;1278;22744;-59
2022/06/30 02:38:37;;;;;;;12.60;11.10;;;;;;;18.20;93.23;99564.52;104630;1278;139552;-59
2022/06/30 02:41:04;;;;;;;14.20;10.90;;;;;;;18.21;93.31;99562.29;104745;1278;24157;-60
2022/06/30 02:43:31;;;;;;;12.50;11.20;;;;;;;18.22;93.30;99562.55;104713;1277;139028;-59
2022/06/30 02:45:58;;;;;;;13.00;11.50;;;;;;;18.22;93.26;99561.06;104743;1279;25167;-59
2022/06/30 02:48:24;;;;;;;14.30;11.70;;;;;;;18.23;93.39;99562.20;104775;1277;27337;-59
2022/06/30 02:50:51;;;;;;;13.60;10.90;;;;;;;18.23;93.37;99563.14;104619;1280;138423;-60
2022/06/30 02:53:18;;;;;;;11.60;10.50;;;;;;;18.23;93.33;99561.38;104664;1279;22734;-59
2022/06/30 02:55:45;;;;;;;11.80;10.00;;;;;;;18.24;93.36;99558.05;104704;1278;138973;-59
2022/06/30 02:58:11;;;;;;;13.30;10.60;;;;;;;18.25;93.42;99560.56;104987;1277;24393;-59
2022/06/30 03:00:38;;;;;;;13.70;10.00;;;;;;;18.27;93.34;99562.02;104748;1280;139159;-59
2022/06/30 03:03:05;;;;;;;12.60;10.60;;;;;;;18.28;93.44;99567.73;104829;1279;24236;-59
2022/06/30 03:05:32;;;;;;;12.60;9.30;;;;;;;18.30;93.37;99570.13;104637;1279;22602;-59
2022/06/30 03:07:59;;;;;;;17.20;10.00;;;;;;;18.31;93.29;99569.26;108945;1277;139611;-59
2022/06/30 03:10:26;;;;;;;11.80;10.50;;;;;;;18.34;93.33;99566.55;108988;1279;22414;-60
2022/06/30 03:12:52;;;;;;;12.00;9.20;;;;;;;18.37;93.30;99566.48;108903;1277;138912;-60
2022/06/30 03:15:19;;;;;;;10.20;9.10;;;;;;;18.40;93.25;99573.89;108961;1277;22557;-59
2022/06/30 03:17:46;;;;;;;13.80;9.90;;;;;;;18.43;93.12;99578.67;108903;1279;23551;-60
2022/06/30 03:20:13;;;;;;;13.50;9.10;;;;;;;18.48;92.96;99577.05;108963;1277;140388;-60
2022/06/30 03:22:40;;;;;;;9.50;8.40;;;;;;;18.53;92.80;99574.86;108940;1279;22480;-59
2022/06/30 03:25:07;;;;;;;9.80;7.60;;;;;;;18.58;92.63;99577.21;108925;1277;139810;-60
2022/06/30 03:27:34;;;;;;;9.70;8.70;;;;;;;18.62;92.47;99575.64;109064;1277;23535;-60
2022/06/30 03:30:01;;;;;;;9.70;8.60;;;;;;;18.68;92.40;99576.88;109054;1279;22516;-59
2022/06/30 03:32:28;;;;;;;10.00;7.80;;;;;;;18.74;92.01;99578.67;108974;1277;138258;-60
2022/06/30 03:34:55;;;;;;;9.30;7.80;;;;;;;18.80;91.89;99578.38;109049;1277;22465;-60
2022/06/30 03:37:28;;;;;;;8.80;7.90;;;;;;;18.88;91.52;99583.79;108851;1277;139306;-60
2022/06/30 03:39:55;;;;;;;11.10;7.90;;;;;;;18.95;91.24;99590.23;108959;1277;23667;-60
2022/06/30 03:42:21;;;;;;;8.40;7.60;;;;;;;19.01;90.80;99591.77;109015;1279;23134;-60
2022/06/30 03:44:48;;;;;;;8.20;7.40;;;;;;;19.07;90.31;99592.77;109001;1277;138427;-59
2022/06/30 03:47:15;;;;;;;12.60;7.80;;;;;;;19.14;90.00;99596.04;108999;1279;22454;-59
2022/06/30 03:49:42;;;;;;;8.50;7.20;;;;;;;19.20;89.56;99591.45;109010;1277;139442;-59
2022/06/30 03:52:09;;;;;;;8.50;7.50;;;;;;;19.27;89.20;99589.80;109027;1277;22413;-59
2022/06/30 03:54:36;;;;;;;9.50;7.50;;;;;;;19.33;88.80;99593.96;108935;1277;140916;-60
2022/06/30 03:57:03;;;;;;;8.10;7.30;;;;;;;19.39;88.62;99592.09;109050;1277;22471;-60
2022/06/30 03:59:35;;;;;;;8.20;7.40;;;;;;;19.47;88.14;99594.19;108952;1279;23115;-59
2022/06/30 04:02:02;;;;;;;9.80;7.80;;;;;;;19.53;87.71;99590.45;108840;1279;139137;-60
2022/06/30 04:04:29;;;;;;;12.50;7.90;;;;;;;19.61;87.59;99592.62;109069;1277;22469;-60
2022/06/30 04:06:56;;;;;;;8.00;7.20;;;;;;;19.69;87.10;99593.24;108895;1277;139562;-59
2022/06/30 04:09:23;;;;;;;7.80;6.90;;;;;;;19.75;86.53;99591.75;109055;1277;23700;-60
2022/06/30 04:11:50;;;;;;;10.90;7.10;;;;;;;19.82;86.26;99591.45;109055;1277;22274;-59
2022/06/30 04:14:16;;;;;;;7.90;6.80;;;;;;;19.88;85.88;99587.89;109026;1277;138285;-60
2022/06/30 04:16:44;;;;;;;7.50;6.80;;;;;;;19.93;85.65;99586.51;109127;1277;22480;-59
2022/06/30 04:19:11;;;;;;;7.90;6.90;;;;;;;19.99;85.45;99590.18;108912;1277;139894;-59
2022/06/30 04:21:38;;;;;;;7.90;7.00;;;;;;;20.05;85.46;99588.52;108904;1277;22235;-59
2022/06/30 04:24:05;;;;;;;9.30;7.10;;;;;;;20.13;85.33;99592.61;109046;1277;22286;-60
2022/06/30 04:26:32;;;;;;;7.70;6.90;;;;;;;20.20;85.38;99596.06;108944;1277;140308;-60
2022/06/30 04:28:58;;;;;;;7.50;6.70;;;;;;;20.26;84.97;99597.26;109051;1277;22600;-59
2022/06/30 04:34:11;;;;;;;11.30;6.30;;;;;;;20.41;83.64;99597.14;108927;1279;22538;-58
2022/06/30 04:36:38;;;;;;;9.30;6.60;;;;;;;20.48;83.33;99597.81;108915;1277;139234;-58
2022/06/30 04:39:04;;;;;;;9.30;6.40;;;;;;;20.56;82.91;99593.17;109077;1277;22533;-59
2022/06/30 04:41:31;;;;;;;7.80;6.40;;;;;;;20.63;82.59;99592.73;108990;1277;22449;-58
2022/06/30 04:43:59;;;;;;;8.10;6.00;;;;;;;20.68;81.92;99588.70;108994;1277;137880;-58
2022/06/30 04:46:26;;;;;;;8.90;6.40;;;;;;;20.75;81.63;99589.54;109090;1277;22464;-58
2022/06/30 04:48:53;;;;;;;7.10;5.70;;;;;;;20.83;81.10;99591.30;108890;1277;140600;-58
2022/06/30 04:51:20;;;;;;;7.60;6.80;;;;;;;20.89;80.65;99589.23;108980;1277;23186;-59
2022/06/30 04:53:47;;;;;;;6.90;6.20;;;;;;;20.94;80.51;99593.33;108963;1278;23296;-59
2022/06/30 04:56:14;;;;;;;9.40;6.00;;;;;;;20.99;80.34;99599.00;108855;1277;139272;-59
2022/06/30 04:58:41;;;;;;;6.90;5.20;;;;;;;21.04;79.28;99595.88;109060;1277;22560;-59
2022/06/30 05:01:08;;;;;;;12.20;5.80;;;;;;;21.11;78.24;99596.04;108996;1277;139128;-59
2022/06/30 05:03:35;;;;;;;6.20;4.90;;;;;;;21.21;78.38;99599.90;109048;1277;22455;-59
2022/06/30 05:06:03;;;;;;;7.40;5.10;;;;;;;21.30;78.31;99600.34;109069;1277;22372;-59
2022/06/30 05:08:29;;;;;;;6.60;5.20;;;;;;;21.43;77.70;99605.25;108993;1277;138116;-60
2022/06/30 05:10:57;;;;;;;7.40;5.00;;;;;;;21.52;77.20;99600.99;108928;1279;22287;-60
2022/06/30 05:13:25;;;;;;;12.00;5.10;;;;;;;21.63;75.72;99595.54;108897;1277;139119;-59
2022/06/30 05:15:52;;;;;;;6.70;5.20;;;;;;;21.79;74.64;99598.36;108960;1277;22528;-59
2022/06/30 05:18:19;;;;;;;5.90;5.30;;;;;;;21.96;73.09;99602.11;108961;1277;22490;-58
2022/06/30 05:20:46;;;;;;;4.60;4.10;;;;;;;22.15;71.99;99607.64;108831;1277;139432;-60
2022/06/30 05:23:13;;;;;;;6.90;4.20;;;;;;;22.39;71.33;99607.84;108896;1279;23116;-60
2022/06/30 05:28:25;;;;;;;5.30;4.00;;;;;;;23.04;69.97;99609.64;109013;1277;22416;-60
2022/06/30 05:30:52;;;;;;;4.90;4.00;;;;;;;23.40;68.60;99614.02;108838;1277;138897;-59
2022/06/30 05:33:20;;;;;;;5.70;4.70;;;;;;;23.79;67.67;99619.04;109060;1277;22430;-59
2022/06/30 05:35:47;;;;;;;4.50;4.10;;;;;;;24.16;65.95;99610.33;109010;1277;22432;-59
2022/06/30 05:38:15;;;;;;;7.10;4.10;;;;;;;24.53;65.48;99611.80;108962;1277;137271;-59
2022/06/30 05:40:42;;;;;;;5.20;3.80;;;;;;;24.91;64.11;99605.61;108933;1278;22350;-59
2022/06/30 05:43:11;;;;;;;3.70;3.40;;;;;;;25.28;62.61;99609.83;108879;1277;138602;-59
2022/06/30 05:45:38;;;;;;;6.50;3.80;;;;;;;25.59;60.76;99600.30;109022;1277;23438;-60
2022/06/30 05:48:05;;;;;;;5.30;4.50;;;;;;;25.79;60.18;99593.31;109016;1279;23527;-59
2022/06/30 05:50:32;;;;;;;4.10;3.70;;;;;;;25.99;58.62;99592.73;108908;1278;138229;-59
2022/06/30 05:52:59;;;;;;;6.20;3.80;;;;;;;26.06;57.88;99594.42;109072;1277;22466;-59
2022/06/30 05:55:26;;;;;;;4.40;3.80;;;;;;;26.09;57.59;99595.38;108927;1277;138927;-59
2022/06/30 05:58:01;;;;;;;7.30;5.80;;;;;;;26.03;57.54;99589.40;109098;1277;22477;-59
2022/06/30 06:00:29;;;;;;;8.00;5.80;;;;;;;25.94;58.28;99597.23;109065;1277;22425;-59
2022/06/30 06:02:56;;;;;;;7.70;4.90;;;;;;;25.83;58.50;99599.71;108985;1277;138248;-59
2022/06/30 06:05:23;;;;;;;8.60;5.50;;;;;;;25.66;59.02;99600.27;108998;1279;23279;-59
2022/06/30 06:07:51;;;;;;;8.00;6.00;;;;;;;25.51;59.66;99604.15;108883;1279;138493;-59
2022/06/30 06:10:18;;;;;;;10.20;6.30;;;;;;;25.38;59.62;99607.77;108944;1278;22646;-59
2022/06/30 06:12:45;;;;;;;9.80;7.30;;;;;;;25.27;59.69;99612.84;108790;1278;139016;-59
2022/06/30 06:15:12;;;;;;;6.80;5.90;;;;;;;25.19;59.65;99617.40;109120;1277;22590;-59
2022/06/30 06:17:46;;;;;;;10.00;6.80;;;;;;;25.08;59.49;99622.89;109075;1277;22527;-59
2022/06/30 06:20:15;;;;;;;8.00;5.30;;;;;;;24.95;59.76;99621.36;108940;1277;140008;-59
2022/06/30 06:22:42;;;;;;;9.10;5.40;;;;;;;24.84;60.00;99620.17;109081;1277;22449;-59
2022/06/30 06:25:09;;;;;;;8.10;5.70;;;;;;;24.73;60.25;99608.30;108912;1277;137751;-59
2022/06/30 06:27:36;;;;;;;6.90;5.00;;;;;;;24.67;60.49;99609.78;109050;1277;22566;-60
2022/06/30 06:30:03;;;;;;;6.00;5.40;;;;;;;24.62;60.61;99606.05;109097;1277;22553;-59
2022/06/30 06:32:30;;;;;;;5.60;5.10;;;;;;;24.59;60.95;99608.02;108925;1277;139558;-59
2022/06/30 06:34:58;;;;;;;6.20;5.60;;;;;;;24.54;61.02;99605.71;109043;1277;23214;-61
2022/06/30 06:37:24;;;;;;;9.70;5.60;;;;;;;24.50;60.96;99606.05;108919;1277;139251;-58
2022/06/30 06:39:51;;;;;;;5.80;5.20;;;;;;;24.49;61.57;99608.16;109043;1277;22452;-59
2022/06/30 06:42:18;;;;;;;11.50;6.40;;;;;;;24.48;60.84;99610.70;109029;1277;22646;-59
2022/06/30 06:44:47;;;;;;;6.40;5.80;;;;;;;24.47;61.43;99609.39;108938;1277;138449;-59
2022/06/30 06:47:15;;;;;;;5.50;5.00;;;;;;;24.49;61.85;99605.80;109021;1278;22568;-62
2022/06/30 06:49:43;;;;;;;25.30;9.80;;;;;;;24.53;62.33;99603.61;108994;1279;138422;-62
2022/06/30 06:52:10;;;;;;;15.70;7.90;;;;;;;24.57;62.22;99603.73;109004;1277;22546;-60
2022/06/30 06:54:37;;;;;;;6.40;5.80;;;;;;;24.57;62.16;99602.45;108918;1277;140516;-61
2022/06/30 06:57:04;;;;;;;10.30;5.80;;;;;;;24.57;62.45;99601.75;108916;1279;22386;-61
2022/06/30 06:59:31;;;;;;;6.60;5.70;;;;;;;24.61;62.20;99604.44;108968;1279;22280;-61
2022/06/30 07:01:57;;;;;;;9.10;6.10;;;;;;;24.68;60.97;99602.64;108837;1279;139603;-61
2022/06/30 07:04:24;;;;;;;7.50;5.30;;;;;;;24.70;61.02;99601.75;109121;1277;23731;-62
2022/06/30 07:06:52;;;;;;;5.90;5.30;;;;;;;24.71;60.98;99595.72;108952;1279;138352;-61
2022/06/30 07:09:19;;;;;;;11.10;6.50;;;;;;;24.71;60.78;99602.27;109035;1277;22453;-61
2022/06/30 07:11:48;;;;;;;8.10;5.30;;;;;;;24.69;60.88;99595.05;109091;1277;22258;-61
2022/06/30 07:14:14;;;;;;;53.80;13.20;;;;;;;24.67;60.84;99598.49;108869;1278;138324;-62
2022/06/30 07:16:41;;;;;;;12.00;6.40;;;;;;;24.66;61.41;99599.73;109029;1277;23334;-61
2022/06/30 07:19:08;;;;;;;5.90;5.30;;;;;;;24.67;61.62;99596.43;108710;1279;138145;-62
2022/06/30 07:21:41;;;;;;;8.10;5.80;;;;;;;24.71;61.96;99595.56;106670;1279;22627;-61
2022/06/30 07:24:08;;;;;;;5.90;5.10;;;;;;;24.75;61.53;99593.49;106930;1279;22446;-62
2022/06/30 07:26:35;;;;;;;5.30;4.80;;;;;;;24.82;61.94;99595.13;106791;1279;138736;-61
2022/06/30 07:29:02;;;;;;;6.50;4.80;;;;;;;24.86;60.78;99592.86;106912;1279;23480;-62
2022/06/30 07:31:29;;;;;;;9.10;5.00;;;;;;;24.86;59.15;99594.05;106919;1279;140429;-61
2022/06/30 07:33:56;;;;;;;5.10;4.60;;;;;;;24.85;59.31;99599.27;106992;1278;23079;-61
2022/06/30 07:36:23;;;;;;;4.80;4.30;;;;;;;24.86;59.48;99603.60;107042;1279;22462;-62
2022/06/30 07:38:50;;;;;;;4.80;4.40;;;;;;;24.87;58.89;99606.33;106889;1279;139093;-61
2022/06/30 07:41:17;;;;;;;3.90;3.50;;;;;;;24.88;59.29;99609.50;106840;1277;22524;-61
2022/06/30 07:43:44;;;;;;;5.20;4.60;;;;;;;24.89;59.39;99607.21;106864;1278;139843;-61
2022/06/30 07:46:12;;;;;;;5.40;4.90;;;;;;;24.97;58.86;99616.56;106945;1279;22495;-65
2022/06/30 07:48:39;;;;;;;5.60;4.80;;;;;;;25.00;58.35;99620.65;106924;1279;138645;-64
2022/06/30 07:51:06;;;;;;;5.90;5.00;;;;;;;25.00;58.50;99617.05;106994;1278;22460;-65
2022/06/30 07:53:33;;;;;;;7.60;4.00;;;;;;;24.99;57.61;99616.80;107129;1278;24301;-64
2022/06/30 07:56:00;;;;;;;8.90;5.60;;;;;;;24.97;57.68;99615.86;106979;1279;137829;-65
2022/06/30 07:58:27;;;;;;;6.70;5.40;;;;;;;24.97;58.27;99615.30;106935;1279;22486;-65
2022/06/30 08:00:53;;;;;;;12.00;9.00;;;;;;;24.98;57.73;99611.59;106875;1277;139093;-64
2022/06/30 08:03:20;;;;;;;10.90;9.60;;;;;;;25.00;58.04;99614.03;107158;1277;23502;-66
2022/06/30 08:05:47;;;;;;;6.60;5.70;;;;;;;25.01;58.23;99610.88;107061;1277;24490;-64
2022/06/30 08:08:14;;;;;;;6.40;5.50;;;;;;;25.00;57.82;99606.47;106945;1278;140795;-65
2022/06/30 08:10:41;;;;;;;6.30;5.00;;;;;;;24.99;57.89;99606.34;107086;1277;22436;-65
2022/06/30 08:13:08;;;;;;;6.80;5.60;;;;;;;24.98;58.18;99605.30;107048;1277;139271;-65
2022/06/30 08:15:35;;;;;;;7.10;5.00;;;;;;;25.00;57.57;99605.91;107060;1280;22458;-62
2022/06/30 08:18:03;;;;;;;5.80;4.40;;;;;;;24.97;57.25;99600.45;107107;1279;25432;-62
2022/06/30 08:20:30;;;;;;;21.90;7.00;;;;;;;24.98;57.82;99601.77;106969;1278;139569;-62
2022/06/30 08:22:57;;;;;;;11.80;7.90;;;;;;;25.01;58.03;99598.62;107081;1279;22481;-63
2022/06/30 08:25:24;;;;;;;6.10;5.50;;;;;;;25.05;58.23;99605.10;106869;1279;139049;-63
2022/06/30 08:27:51;;;;;;;17.60;7.90;;;;;;;25.08;58.00;99604.14;107010;1280;24916;-59
2022/06/30 08:30:18;;;;;;;8.20;5.60;;;;;;;25.08;57.74;99603.36;106880;1280;22518;-60
2022/06/30 08:32:45;;;;;;;5.70;4.80;;;;;;;25.09;57.40;99603.95;106787;1279;139350;-60
2022/06/30 08:35:13;;;;;;;5.90;5.20;;;;;;;25.11;57.41;99603.52;106808;1279;22497;-60
2022/06/30 08:37:40;;;;;;;5.70;4.90;;;;;;;25.14;57.12;99603.52;106734;1279;138762;-60
2022/06/30 08:42:56;;;;;;;6.50;5.00;;;;;;;25.18;56.89;99605.64;106670;1280;140026;-60
2022/06/30 08:45:24;;;;;;;15.30;7.50;;;;;;;25.17;56.83;99599.09;106991;1279;24366;-60
2022/06/30 08:47:51;;;;;;;6.80;5.50;;;;;;;25.18;56.69;99597.70;107024;1278;23074;-60
2022/06/30 08:50:18;;;;;;;6.20;5.60;;;;;;;25.19;56.80;99594.14;106882;1277;138780;-61
2022/06/30 08:52:52;;;;;;;9.70;6.80;;;;;;;25.23;56.77;99595.61;107040;1280;22558;-59
2022/06/30 08:55:30;;;;;;;6.20;5.60;;;;;;;25.26;56.69;99597.45;106672;1280;139352;-60
2022/06/30 08:58:06;;;;;;;6.00;4.90;;;;;;;25.28;56.41;99599.73;103699;1280;25243;-61
2022/06/30 09:00:34;;;;;;;8.10;5.20;;;;;;;25.28;56.22;99603.06;103744;1280;24187;-60
2022/06/30 09:03:05;;;;;;;6.00;5.40;;;;;;;25.32;56.16;99602.48;103712;1280;26035;-60
2022/06/30 09:05:32;;;;;;;4.90;4.40;;;;;;;25.36;56.31;99602.61;103678;1280;26014;-62
2022/06/30 09:07:59;;;;;;;6.00;5.50;;;;;;;25.40;56.45;99602.61;103643;1280;138853;-62
2022/06/30 09:10:51;;;;;;;5.50;5.00;;;;;;;25.44;56.45;99605.68;103700;1280;22726;-62
2022/06/30 09:13:18;;;;;;;9.30;4.40;;;;;;;25.47;56.01;99605.77;103524;1280;138262;-63
2022/06/30 09:15:45;;;;;;;6.30;5.10;;;;;;;25.51;55.75;99606.77;103600;1281;22575;-62
2022/06/30 09:18:23;;;;;;;21.00;7.30;;;;;;;25.53;56.41;99605.31;103651;1279;22568;-63
2022/06/30 09:20:49;;;;;;;5.80;5.20;;;;;;;25.57;56.58;99608.85;103663;1280;138657;-64
2022/06/30 09:23:23;;;;;;;6.90;5.90;;;;;;;25.60;56.46;99608.95;103769;1280;22595;-62
2022/06/30 09:25:52;;;;;;;5.70;5.20;;;;;;;25.64;55.87;99603.98;103547;1279;138804;-61
2022/06/30 09:28:57;;;;;;;5.20;4.80;;;;;;;25.68;54.60;99604.09;103550;1279;25653;-61
2022/06/30 09:31:44;;;;;;;10.40;4.60;;;;;;;25.71;54.61;99602.42;102954;1286;137989;-62
2022/06/30 09:34:18;;;;;;;5.00;4.50;;;;;;;25.75;54.87;99603.06;103169;1286;24126;-61
2022/06/30 09:36:46;;;;;;;5.10;4.50;;;;;;;25.81;54.85;99603.17;102983;1286;138894;-62
2022/06/30 09:39:14;;;;;;;5.60;5.00;;;;;;;25.85;54.87;99602.63;103240;1283;24181;-63
2022/06/30 09:41:41;;;;;;;5.30;4.80;;;;;;;25.88;54.45;99599.52;103165;1284;22748;-62
2022/06/30 09:44:16;;;;;;;4.60;4.20;;;;;;;25.89;53.97;99597.63;102858;1286;137956;-61
2022/06/30 09:46:59;;;;;;;5.50;4.80;;;;;;;25.92;53.27;99597.57;103043;1284;22565;-61
2022/06/30 09:49:37;;;;;;;5.50;4.80;;;;;;;25.92;53.80;99596.13;103066;1283;137610;-60
2022/06/30 09:52:25;;;;;;;4.70;4.30;;;;;;;25.95;54.20;99591.34;106434;1283;22511;-60
2022/06/30 09:55:01;;;;;;;5.20;4.70;;;;;;;25.95;53.89;99586.21;106120;1285;138465;-62
2022/06/30 09:57:41;;;;;;;5.80;4.80;;;;;;;25.99;53.83;99591.69;103006;1284;22640;-61
2022/06/30 10:00:13;;;;;;;5.90;4.80;;;;;;;26.01;52.21;99589.40;103150;1284;25274;-61
2022/06/30 10:02:46;;;;;;;5.10;4.20;;;;;;;25.99;52.17;99583.76;103052;1282;139442;-62
2022/06/30 10:05:14;;;;;;;5.60;5.10;;;;;;;25.97;52.45;99587.56;103545;1280;26529;-61
2022/06/30 10:07:41;;;;;;;5.70;4.70;;;;;;;25.97;52.82;99585.80;103408;1281;137703;-61
2022/06/30 10:10:12;;;;;;;7.00;6.10;;;;;;;25.96;53.53;99578.03;103529;1281;22635;-62
2022/06/30 10:12:45;;;;;;;5.40;4.80;;;;;;;26.00;53.25;99576.79;103362;1279;139164;-62
2022/06/30 10:15:14;;;;;;;8.70;5.40;;;;;;;26.03;52.82;99579.25;103713;1278;22809;-62
2022/06/30 10:17:44;;;;;;;5.80;4.90;;;;;;;26.03;53.41;99581.02;103639;1280;26046;-62
2022/06/30 10:20:17;;;;;;;;;;;;;;;26.08;54.56;99583.69;103610;1279;138806;-62
2022/06/30 10:22:44;;;;;;;20.70;9.60;;;;;;;26.15;55.19;99582.81;103617;1279;22717;-61
2022/06/30 10:25:11;;;;;;;8.20;5.40;;;;;;;26.25;54.16;99588.13;103465;1279;137865;-62
2022/06/30 10:27:38;;;;;;;5.90;5.40;;;;;;;26.33;53.49;99583.24;103633;1280;27920;-62
2022/06/30 10:30:09;;;;;;;7.60;5.30;;;;;;;26.36;53.59;99578.38;103245;1281;316851;-62
2022/06/30 10:35:15;;;;;;;6.10;5.50;;;;;;;26.54;53.74;99579.11;100654;1312;547218;-64
2022/06/30 10:37:54;;;;;;;5.30;4.80;;;;;;;26.58;53.43;99583.60;102621;1289;137412;-63
2022/06/30 10:40:40;;;;;;;6.50;5.20;;;;;;;26.62;52.81;99579.39;102418;1293;24976;-64
2022/06/30 10:43:07;;;;;;;6.00;5.50;;;;;;;26.68;52.98;99582.96;102481;1293;137728;-63
2022/06/30 10:45:34;;;;;;;5.20;4.70;;;;;;;26.71;52.82;99577.19;102770;1291;27833;-63
2022/06/30 10:48:06;;;;;;;5.80;5.10;;;;;;;26.77;53.48;99576.60;102590;1289;202080;-63
2022/06/30 10:50:38;;;;;;;5.80;5.00;;;;;;;26.82;53.44;99577.61;102660;1290;137294;-63
2022/06/30 10:53:08;;;;;;;5.70;5.10;;;;;;;26.87;52.75;99576.35;102981;1290;22567;-63
2022/06/30 10:55:53;;;;;;;6.90;5.60;;;;;;;26.87;52.28;99574.27;102915;1289;138297;-62
2022/06/30 10:58:21;;;;;;;5.60;5.00;;;;;;;26.85;52.77;99577.66;102766;1290;22582;-64
2022/06/30 11:01:00;;;;;;;6.10;5.60;;;;;;;26.78;52.81;99574.48;102516;1291;139690;-63
2022/06/30 11:03:34;;;;;;;6.80;5.50;;;;;;;26.70;53.50;99572.38;102731;1290;25428;-63
2022/06/30 11:06:06;;;;;;;11.60;6.10;;;;;;;26.68;54.02;99576.66;105997;1288;24519;-62
2022/06/30 11:08:38;;;;;;;5.90;5.40;;;;;;;26.64;53.39;99576.88;105737;1290;138803;-62
2022/06/30 11:11:21;;;;;;;6.00;5.40;;;;;;;26.56;54.09;99576.61;105910;1290;22435;-63
2022/06/30 11:13:52;;;;;;;6.30;5.70;;;;;;;26.49;54.53;99575.88;105540;1290;139955;-62
2022/06/30 11:16:19;;;;;;;6.60;5.90;;;;;;;26.43;54.94;99572.60;105721;1292;22571;-62
2022/06/30 11:18:46;;;;;;;6.40;5.70;;;;;;;26.42;55.79;99573.70;105804;1290;138364;-63
2022/06/30 11:21:13;;;;;;;6.40;5.90;;;;;;;26.47;55.99;99570.31;105922;1289;22957;-62
2022/06/30 11:23:42;;;;;;;6.20;5.60;;;;;;;26.51;55.08;99570.20;105694;1291;22646;-62
2022/06/30 11:29:04;;;;;;;;;;;;;;;26.59;55.17;99570.69;105931;1289;23713;-63
2022/06/30 11:31:35;;;;;;;5.90;5.20;;;;;;;26.64;54.32;99568.02;105652;1292;124111;-63
2022/06/30 11:34:07;;;;;;;6.90;6.20;;;;;;;26.68;54.74;99568.13;105977;1290;22545;-63
2022/06/30 11:36:35;;;;;;;6.30;5.60;;;;;;;26.72;55.14;99562.19;105679;1291;137684;-62
2022/06/30 11:39:04;;;;;;;6.10;5.50;;;;;;;26.79;54.85;99563.08;105797;1290;22448;-61
2022/06/30 11:44:17;;;;;;;9.10;5.40;;;;;;;26.82;54.16;99565.31;106714;1281;139190;-61
2022/06/30 11:46:53;;;;;;;6.20;5.70;;;;;;;26.85;54.21;99567.67;106652;1281;22501;-62